Mortugaba, Brazil
Current Conditions -  °F | °C
As of 11:00 AM on Thursday 18 Dec 2014 (Local Time) from SBQV Reporting Station
Broken Clouds Broken Clouds  
Wind Chill: 75°   Ceiling: 1500
Heat Index: 75°   Visibility: 6mi
Dew Point: 70°   Wind: 8mph
Humidity: 83%   Direction: 300°WNW
Pressure: 30.03"   Gusts: NA
Location:  15°S, 42.31°W
Report Text: SBQV 181400Z 30007KT 9999 FEW010 BKN015 BKN070 24/21 Q1017
Loading
Personal Weather Stations






























Interactive Weather Map New forecast layout! Learn more

10-Day Weather Forecast

Advertisements
Track Severe Weather on mobile